Aeroporto :
LOGIN :

Iscrizione | Disclaimer

   EN    FR    IT 

 










Sommario :    VFR   VFR Marginale   IFR   IFR Intensivo   IFR Molto Intensivo
Visibilità : 
Base nubi : 
>= 8 km
>= 3000ft
5 / 8 km
1000 / 3000 ft
1500m / 5 km
500 / 1000 ft
800 / 1500m
200 / 500 ft
< 800m
< 200 ft
Simboli :   Temporali  Nebbia  Neve Forte  Precipitazioni Forti  Vento > 20 kt
SIGMETs :   Varie  Temporali  Ghiacco  Turbolenza  Onda orograficha  Ceneri Vulcaniche







- Altitudine del aeroporto : 768 ft
- Codice IATA : MXP


LIMC - Milano Malpensa

ULTIMO METAR :
  • 161320Z 24005KT 190V290 CAVOK 14/02 Q1030 NOSIG

METARs OBSOLETI :
  • 161250Z 25005KT 210V290 8000 NSC 14/01 Q1031 NOSIG
  • 161220Z 25005KT 210V290 CAVOK 14/01 Q1031 NOSIG
  • 161150Z 22005KT 190V290 CAVOK 14/01 Q1031 NOSIG
  • 161120Z 24006KT 200V270 CAVOK 13/01 Q1032 NOSIG
  • 161050Z 27003KT 210V330 CAVOK 12/02 Q1032 NOSIG

TAF TAF LIMC
Valido dal 16 a 12 ore il 17 a 18 ore UTC


161100Z 1612/1718 VRB05KT CAVOK
TEMPO 1700/1707 3000 BCFG
Nessun NOTAM noto per questo aeroporto.



MetMap, La meteo Aeronautica in un colpo d'occhio ! - Copyright ORBIFLY Dicembre 2007 - Disclaimer

ORBIFLY MET'MAP TEAM :

Programmazione e sviluppo : Alexandra Zaïnal
Concezione e sviluppo : Baudouin d'Aumeries
Co-Programmazione e sviluppo : Marc-Olivier Méhu
Supporto tecnico e logistico : Manuel Goepfert
Aiuto per la traduzione : Arnaldo La Scala

Contatto : metmap@orbifly.com




FONTI E CREDITI :

   NOAA